Time;durP1;ratioP1;P1;durP2;ratioP2;P2;SDS_P1;SDS_P2;PMS_P1;PMS_P2;Temp;Humidity;BMP_temperature;BMP_pressure;BME280_temperature;BME280_humidity;BME280_pressure;Samples;Min_cycle;Max_cycle;Signal;HPM_P1;HPM_P2
2022/06/23 00:02:27;;;;;;;5.68;2.58;;;;;;;18.63;84.83;100084.47;5076361;28;20408;-68
2022/06/23 00:04:55;;;;;;;5.63;2.17;;;;;;;18.61;85.67;100080.28;5062725;28;20122;-69
2022/06/23 00:07:27;;;;;;;6.97;2.72;;;;;;;18.60;86.32;100075.91;5072119;28;20099;-69
2022/06/23 00:09:54;;;;;;;3.78;2.10;;;;;;;18.58;87.09;100083.22;5067812;28;20020;-69
2022/06/23 00:12:30;;;;;;;4.88;2.15;;;;;;;18.55;88.00;100084.34;5073017;28;20020;-69
2022/06/23 00:14:58;;;;;;;7.28;2.63;;;;;;;18.51;88.58;100085.56;5071109;28;20020;-69
2022/06/23 00:17:29;;;;;;;5.75;2.75;;;;;;;18.46;88.10;100074.44;5078631;28;20100;-68
2022/06/23 00:19:57;;;;;;;6.50;2.67;;;;;;;18.50;88.29;100083.00;5090176;28;20028;-68
2022/06/23 00:22:24;;;;;;;4.68;2.47;;;;;;;18.49;87.66;100078.66;5071857;28;20024;-68
2022/06/23 00:24:56;;;;;;;3.92;2.53;;;;;;;18.50;87.48;100081.22;5073237;28;20036;-69
2022/06/23 00:27:28;;;;;;;4.32;2.13;;;;;;;18.37;89.03;100061.97;5073564;28;20539;-69
2022/06/23 00:29:58;;;;;;;4.57;2.40;;;;;;;18.41;89.07;100073.19;5078386;28;20032;-69
2022/06/23 00:32:26;;;;;;;5.28;2.53;;;;;;;18.44;90.66;100073.75;5078536;28;20047;-69
2022/06/23 00:35:04;;;;;;;7.25;2.88;;;;;;;18.39;90.50;100076.81;5080043;28;20020;-69
2022/06/23 00:37:30;;;;;;;4.05;2.05;;;;;;;18.35;90.69;100075.38;5075509;28;20354;-69
2022/06/23 00:39:59;;;;;;;5.10;2.60;;;;;;;18.28;90.46;100062.78;5086163;28;20065;-69
2022/06/23 00:42:27;;;;;;;4.88;2.58;;;;;;;18.24;89.33;100062.19;5077109;28;20032;-69
2022/06/23 00:45:00;;;;;;;4.65;1.85;;;;;;;18.27;88.73;100064.59;5067925;28;20044;-68
2022/06/23 00:47:43;;;;;;;7.93;2.08;;;;;;;18.26;88.02;100070.88;5069711;28;20335;-68
2022/06/23 00:50:20;;;;;;;5.38;2.58;;;;;;;18.27;88.93;100069.91;5063022;28;20021;-68
2022/06/23 00:52:51;;;;;;;4.47;2.10;;;;;;;18.18;87.66;100045.94;5076340;28;20036;-68
2022/06/23 00:55:46;;;;;;;4.70;1.95;;;;;;;18.33;86.39;100065.84;5074185;28;20020;-68
2022/06/23 00:58:35;;;;;;;;;;;;;;;18.37;85.42;100068.13;5048643;28;20750;-68
2022/06/23 01:01:13;;;;;;;4.50;2.15;;;;;;;18.42;84.80;100069.53;5052083;28;19916;-68
2022/06/23 01:04:08;;;;;;;9.55;2.20;;;;;;;18.46;84.57;100065.63;5091584;28;20064;-68
2022/06/23 01:06:42;;;;;;;5.68;2.90;;;;;;;18.49;83.36;100055.53;5071032;28;20115;-68
2022/06/23 01:09:28;;;;;;;7.05;2.28;;;;;;;18.52;84.20;100067.78;5056012;28;20387;-68
2022/06/23 01:11:54;;;;;;;5.15;2.50;;;;;;;18.54;84.12;100072.00;5074890;28;20020;-68
2022/06/23 01:14:30;;;;;;;6.28;2.50;;;;;;;18.54;84.08;100066.66;5091194;28;20039;-68
2022/06/23 01:17:02;;;;;;;4.55;2.40;;;;;;;18.47;83.72;100046.88;5036708;28;20036;-68
2022/06/23 01:19:56;;;;;;;3.95;2.38;;;;;;;18.59;83.33;100071.59;5081355;28;20062;-69
2022/06/23 01:22:30;;;;;;;5.13;2.70;;;;;;;18.61;82.45;100061.66;5095914;28;20070;-68
2022/06/23 01:25:19;;;;;;;4.80;2.22;;;;;;;18.68;81.61;100070.78;5062645;28;20111;-69
2022/06/23 01:27:59;;;;;;;6.38;2.42;;;;;;;18.54;81.10;100036.56;5083420;28;20039;-68
2022/06/23 01:30:27;;;;;;;3.60;1.95;;;;;;;18.74;80.76;100059.56;5065418;28;20569;-68
2022/06/23 01:33:07;;;;;;;6.07;2.63;;;;;;;18.39;80.75;99996.97;5094415;28;20801;-68
2022/06/23 01:36:03;;;;;;;4.57;2.10;;;;;;;18.77;80.82;100069.94;5060966;28;20111;-68
2022/06/23 01:39:04;;;;;;;5.38;2.53;;;;;;;18.78;80.84;100058.31;5057660;28;20123;-69
2022/06/23 01:41:33;;;;;;;4.28;2.03;;;;;;;18.71;80.18;100049.19;5052608;28;20044;-68
2022/06/23 01:44:38;;;;;;;3.78;2.00;;;;;;;18.77;80.56;100059.28;5074723;28;20025;-68
2022/06/23 01:47:13;;;;;;;4.50;2.43;;;;;;;18.72;80.69;100057.03;5059444;28;20143;-68
2022/06/23 01:49:41;;;;;;;3.33;1.77;;;;;;;18.67;81.29;100043.31;5058262;28;20475;-67
2022/06/23 01:52:15;;;;;;;5.97;2.35;;;;;;;18.71;82.11;100054.53;5045371;28;20126;-67
2022/06/23 01:54:40;;;;;;;5.07;2.03;;;;;;;18.67;83.90;100053.09;5040891;28;20029;-67
2022/06/23 01:57:19;;;;;;;6.38;1.90;;;;;;;18.71;84.50;100071.34;5056902;28;20274;-67
2022/06/23 01:59:55;;;;;;;7.75;2.22;;;;;;;18.64;85.10;100064.03;5075005;28;20032;-68
2022/06/23 02:02:26;;;;;;;3.08;1.90;;;;;;;18.64;85.16;100075.53;5073907;28;20036;-68
2022/06/23 02:04:59;;;;;;;5.07;2.65;;;;;;;18.60;87.82;100068.78;5055358;28;20036;-68
2022/06/23 02:07:36;;;;;;;4.35;1.88;;;;;;;18.65;87.63;100073.72;5088927;28;20032;-67
2022/06/23 02:10:10;;;;;;;4.00;2.10;;;;;;;18.59;86.88;100071.59;5048462;28;20608;-67
2022/06/23 02:12:43;;;;;;;5.97;1.70;;;;;;;18.60;87.24;100070.59;5072241;28;20036;-67
2022/06/23 02:15:27;;;;;;;3.33;1.90;;;;;;;18.57;87.64;100068.22;5064715;28;20374;-67
2022/06/23 02:18:20;;;;;;;5.63;1.90;;;;;;;18.56;87.46;100058.53;5092954;28;20024;-68
2022/06/23 02:20:50;;;;;;;3.92;1.88;;;;;;;18.55;88.20;100059.53;5057505;28;20083;-68
2022/06/23 02:23:24;;;;;;;3.50;1.92;;;;;;;18.50;89.54;100054.59;5065007;28;20020;-68
2022/06/23 02:26:10;;;;;;;;;;;;;;;18.44;90.13;100055.13;5080432;28;20062;-68
2022/06/23 02:28:44;;;;;;;3.83;2.20;;;;;;;18.33;90.82;100052.56;5064191;28;19939;-68
2022/06/23 02:31:27;;;;;;;4.38;1.90;;;;;;;18.33;92.57;100060.53;5058741;28;20054;-68
2022/06/23 02:33:57;;;;;;;5.10;2.65;;;;;;;18.24;94.29;100061.34;5067396;28;20458;-68
2022/06/23 02:36:53;;;;;;;4.13;2.33;;;;;;;18.24;96.70;100062.19;5068621;28;20115;-68
2022/06/23 02:39:38;;;;;;;4.38;1.88;;;;;;;18.21;95.73;100065.13;5071598;28;20024;-68
2022/06/23 02:42:23;;;;;;;6.20;2.60;;;;;;;18.14;96.60;100050.69;5056051;28;20043;-69
2022/06/23 02:45:10;;;;;;;7.30;2.33;;;;;;;18.17;96.26;100055.72;5084782;28;20061;-69
2022/06/23 02:48:09;;;;;;;4.15;2.22;;;;;;;18.15;96.69;100060.31;5046811;28;20491;-69
2022/06/23 02:50:42;;;;;;;5.75;2.28;;;;;;;18.14;95.93;100056.00;5088445;28;20114;-69
2022/06/23 02:53:30;;;;;;;4.90;2.08;;;;;;;18.12;95.72;100060.59;5066753;28;20038;-69
2022/06/23 02:55:58;;;;;;;8.77;2.08;;;;;;;18.10;96.74;100051.91;5061627;28;20378;-69
2022/06/23 02:58:47;;;;;;;4.47;2.15;;;;;;;17.97;97.13;100038.00;5074656;28;20078;-69
2022/06/23 03:01:25;;;;;;;5.85;2.47;;;;;;;17.98;97.14;100036.19;5046287;28;20075;-69
2022/06/23 03:04:00;;;;;;;3.95;1.92;;;;;;;17.94;97.69;100029.44;5081704;28;20528;-69
2022/06/23 03:06:33;;;;;;;4.13;2.20;;;;;;;17.95;98.55;100047.91;5054383;28;20029;-69
2022/06/23 03:09:14;;;;;;;4.03;2.20;;;;;;;17.84;99.02;100037.38;5056112;28;20047;-69
2022/06/23 03:11:54;;;;;;;4.72;1.75;;;;;;;17.87;99.74;100039.75;5067395;28;20278;-69
2022/06/23 03:14:42;;;;;;;6.22;2.78;;;;;;;17.85;100.00;100044.34;5076053;28;20063;-69
2022/06/23 03:17:24;;;;;;;5.82;3.00;;;;;;;17.81;100.00;100045.63;5052395;28;20036;-69
2022/06/23 03:20:00;;;;;;;6.18;3.28;;;;;;;17.80;100.00;100046.56;5067901;28;20482;-69
2022/06/23 03:22:34;;;;;;;6.07;2.90;;;;;;;17.53;100.00;100006.38;5081915;28;20020;-69
2022/06/23 03:25:16;;;;;;;13.27;3.60;;;;;;;17.74;100.00;100052.44;5073157;28;20023;-68
2022/06/23 03:27:44;;;;;;;7.90;3.55;;;;;;;17.69;100.00;100055.47;5067044;28;20035;-69
2022/06/23 03:30:21;;;;;;;5.05;2.75;;;;;;;17.53;100.00;100043.59;5083099;28;20024;-68
2022/06/23 03:33:00;;;;;;;6.13;2.83;;;;;;;17.34;100.00;100023.88;5062627;28;20082;-68
2022/06/23 03:35:42;;;;;;;5.20;2.80;;;;;;;17.47;100.00;100049.41;5063280;28;20040;-68
2022/06/23 03:41:42;;;;;;;6.82;2.83;;;;;;;17.31;100.00;100034.75;5033342;28;20066;-69
2022/06/23 03:44:28;;;;;;;8.02;2.83;;;;;;;17.34;100.00;100049.56;5068655;28;20077;-69
2022/06/23 03:47:01;;;;;;;6.22;3.50;;;;;;;17.22;100.00;100046.16;5081874;28;20028;-68
2022/06/23 03:49:37;;;;;;;6.00;2.72;;;;;;;17.16;100.00;100037.84;5062007;28;20032;-68
2022/06/23 03:52:12;;;;;;;7.10;2.92;;;;;;;17.16;100.00;100035.19;5078443;28;20116;-68
2022/06/23 03:55:16;;;;;;;10.80;3.13;;;;;;;17.17;100.00;100045.69;5068898;28;20028;-68
2022/06/23 03:57:46;;;;;;;9.77;3.20;;;;;;;17.13;100.00;100035.47;5061281;28;20036;-68
2022/06/23 04:00:22;;;;;;;6.82;3.00;;;;;;;17.12;100.00;100033.75;5085399;28;20024;-68
2022/06/23 04:02:59;;;;;;;6.03;3.08;;;;;;;17.01;100.00;100012.56;5052063;28;20032;-69
2022/06/23 04:05:49;;;;;;;4.32;2.80;;;;;;;17.03;100.00;100022.09;5089304;28;20036;-68
2022/06/23 04:08:14;;;;;;;6.45;2.95;;;;;;;17.06;100.00;100035.13;5078294;28;20111;-68
2022/06/23 04:10:42;;;;;;;6.63;3.03;;;;;;;16.88;100.00;100015.41;5080847;28;20491;-67
2022/06/23 04:13:16;;;;;;;7.10;3.75;;;;;;;17.02;100.00;100039.00;5072692;28;20020;-67
2022/06/23 04:15:42;;;;;;;6.25;2.95;;;;;;;16.98;100.00;100032.25;5078096;28;20025;-67
2022/06/23 04:18:12;;;;;;;6.38;3.60;;;;;;;17.01;100.00;100037.31;5088193;28;20028;-67
2022/06/23 04:20:41;;;;;;;7.65;3.80;;;;;;;17.01;100.00;100033.81;5080077;28;20036;-68
2022/06/23 04:23:15;;;;;;;5.63;3.30;;;;;;;17.01;100.00;100034.66;5087496;28;20024;-67
2022/06/23 04:25:46;;;;;;;6.28;2.65;;;;;;;17.00;100.00;100035.59;5079578;28;20031;-68
2022/06/23 04:28:49;;;;;;;5.35;3.00;;;;;;;16.77;100.00;100002.16;5066969;28;20077;-68
2022/06/23 04:31:34;;;;;;;5.68;3.15;;;;;;;16.99;100.00;100049.88;5046266;28;20925;-68
2022/06/23 04:34:00;;;;;;;6.97;3.45;;;;;;;16.90;100.00;100032.03;5080471;28;20475;-68
2022/06/23 04:36:33;;;;;;;7.47;3.35;;;;;;;17.01;100.00;100047.91;5059601;28;20029;-68
2022/06/23 04:39:06;;;;;;;6.38;3.42;;;;;;;16.91;100.00;100035.53;5046154;28;20036;-67
2022/06/23 04:41:41;;;;;;;8.32;3.40;;;;;;;16.83;100.00;100014.94;5079476;28;20107;-67
2022/06/23 04:44:28;;;;;;;4.55;3.25;;;;;;;17.08;100.00;100057.06;5046316;28;20029;-69
2022/06/23 04:47:05;;;;;;;6.20;3.38;;;;;;;17.05;100.00;100044.06;5061588;28;20059;-69
2022/06/23 04:49:36;;;;;;;5.10;3.65;;;;;;;17.18;100.00;100055.34;5091837;28;20139;-69
2022/06/23 04:52:16;;;;;;;7.03;3.88;;;;;;;16.94;100.00;99998.97;5061208;28;20025;-69
2022/06/23 04:54:50;;;;;;;5.82;3.47;;;;;;;17.27;100.00;100045.78;5078237;28;20023;-69
2022/06/23 04:57:52;;;;;;;6.68;3.95;;;;;;;17.19;100.00;100025.16;5074151;28;20107;-69
2022/06/23 05:00:43;;;;;;;8.50;3.90;;;;;;;17.36;100.00;100048.50;5075638;28;20032;-69
2022/06/23 05:03:32;;;;;;;9.18;3.55;;;;;;;17.36;100.00;100037.03;5080966;28;20033;-68
2022/06/23 05:06:09;;;;;;;11.68;3.72;;;;;;;17.45;100.00;100046.03;5070433;28;20119;-68
2022/06/23 05:08:39;;;;;;;6.80;4.20;;;;;;;17.46;100.00;100043.25;5068712;28;20032;-68
2022/06/23 05:11:21;;;;;;;8.45;3.90;;;;;;;17.44;100.00;100041.72;5093095;28;20075;-68
2022/06/23 05:13:50;;;;;;;9.00;4.57;;;;;;;17.38;100.00;100033.28;5066103;28;20028;-68
2022/06/23 05:16:34;;;;;;;8.23;2.97;;;;;;;17.56;100.00;100053.97;5061414;28;20435;-68
2022/06/23 05:19:00;;;;;;;7.63;2.93;;;;;;;17.60;100.00;100052.75;5092657;28;20173;-68
2022/06/23 05:21:42;;;;;;;10.70;3.13;;;;;;;17.65;100.00;100056.69;5066581;28;20027;-68
2022/06/23 05:24:18;;;;;;;4.82;2.72;;;;;;;17.59;100.00;100033.31;5099051;28;20181;-69
2022/06/23 05:26:49;;;;;;;11.52;3.83;;;;;;;17.77;100.00;100058.31;5070522;28;20116;-69
2022/06/23 05:29:38;;;;;;;9.45;3.70;;;;;;;17.84;100.00;100067.44;5059270;28;20072;-69
2022/06/23 05:32:14;;;;;;;6.90;3.38;;;;;;;17.85;100.00;100052.31;5059547;28;20536;-69
2022/06/23 05:34:48;;;;;;;9.40;3.38;;;;;;;17.87;100.00;100058.38;5070958;28;20037;-68
2022/06/23 05:37:24;;;;;;;6.00;3.17;;;;;;;18.06;100.00;100068.25;5067820;28;20055;-68
2022/06/23 05:39:56;;;;;;;8.60;3.97;;;;;;;18.11;100.00;100071.38;5057502;28;20036;-69
2022/06/23 05:42:29;;;;;;;5.60;3.72;;;;;;;18.09;100.00;100057.34;5083724;28;20028;-68
2022/06/23 05:44:59;;;;;;;7.53;4.18;;;;;;;18.16;100.00;100051.38;5071062;28;20020;-69
2022/06/23 05:47:27;;;;;;;13.30;4.68;;;;;;;18.15;100.00;100041.69;5067135;28;20040;-68
2022/06/23 05:49:56;;;;;;;7.50;4.35;;;;;;;18.39;100.00;100067.97;5078034;28;20463;-68
2022/06/23 05:52:26;;;;;;;6.57;3.90;;;;;;;18.44;100.00;100067.59;5077083;28;20445;-69
2022/06/23 05:54:57;;;;;;;8.70;4.25;;;;;;;18.52;100.00;100070.44;5098517;28;20058;-69
2022/06/23 05:57:38;;;;;;;7.53;3.90;;;;;;;18.62;100.00;100071.31;5053769;28;20497;-68
2022/06/23 06:00:11;;;;;;;10.23;4.38;;;;;;;18.67;100.00;100063.75;5085497;28;20066;-69
2022/06/23 06:02:53;;;;;;;13.20;3.92;;;;;;;18.71;100.00;100060.69;5076944;28;20024;-69
2022/06/23 06:05:24;;;;;;;7.03;3.75;;;;;;;18.83;100.00;100072.91;5074212;28;20116;-68
2022/06/23 06:07:50;;;;;;;8.20;4.70;;;;;;;18.79;100.00;100041.38;5082686;28;20073;-69
2022/06/23 06:10:21;;;;;;;10.32;5.05;;;;;;;18.98;100.00;100057.38;5068036;28;20041;-69
2022/06/23 06:12:47;;;;;;;6.85;3.45;;;;;;;19.02;100.00;100052.59;5072339;28;20020;-68
2022/06/23 06:15:19;;;;;;;6.68;3.80;;;;;;;19.24;100.00;100074.47;5084928;28;20032;-69
2022/06/23 06:17:45;;;;;;;10.07;4.03;;;;;;;19.31;100.00;100064.94;5060065;28;20103;-69
2022/06/23 06:20:12;;;;;;;13.63;3.42;;;;;;;19.39;100.00;100062.44;5088028;28;20450;-69
2022/06/23 06:23:00;;;;;;;7.65;3.83;;;;;;;19.54;100.00;100070.84;5088109;28;20043;-69
2022/06/23 06:25:34;;;;;;;8.48;3.80;;;;;;;19.65;100.00;100061.84;5064482;28;20049;-70
2022/06/23 06:28:30;;;;;;;9.23;4.13;;;;;;;19.78;100.00;100062.41;5092922;28;20063;-69
2022/06/23 06:31:01;;;;;;;8.90;4.38;;;;;;;19.90;100.00;100061.25;5077459;28;20458;-69
2022/06/23 06:33:33;;;;;;;8.38;5.13;;;;;;;19.86;100.00;100033.19;5066579;28;20024;-69
2022/06/23 06:35:59;;;;;;;9.98;5.20;;;;;;;20.20;100.00;100063.69;5073765;28;20545;-69
2022/06/23 06:38:27;;;;;;;7.72;4.60;;;;;;;20.29;100.00;100052.16;5085162;28;20108;-69
2022/06/23 06:40:56;;;;;;;11.93;5.70;;;;;;;20.36;100.00;100050.56;5057691;28;20070;-69
2022/06/23 06:43:24;;;;;;;8.65;5.38;;;;;;;20.50;100.00;100048.41;5045203;28;20048;-69
2022/06/23 06:45:50;;;;;;;10.27;5.75;;;;;;;20.64;100.00;100062.09;5047358;28;20038;-69
2022/06/23 06:48:26;;;;;;;8.90;5.35;;;;;;;20.79;100.00;100057.06;5061390;28;20764;-68
2022/06/23 06:50:56;;;;;;;13.18;5.78;;;;;;;20.66;100.00;100022.72;5085229;28;20115;-68
2022/06/23 06:53:37;;;;;;;10.88;5.55;;;;;;;20.97;100.00;100052.59;5087356;28;20394;-69
2022/06/23 06:56:22;;;;;;;10.60;5.65;;;;;;;21.15;100.00;100066.84;5073528;28;20050;-69
2022/06/23 06:58:56;;;;;;;12.02;6.68;;;;;;;21.24;100.00;100057.91;5080037;28;20513;-69
2022/06/23 07:01:24;;;;;;;13.20;5.70;;;;;;;21.35;100.00;100063.03;5070041;28;20034;-69
2022/06/23 07:03:52;;;;;;;13.45;6.00;;;;;;;21.42;100.00;100067.75;5086371;28;20051;-69
2022/06/23 07:06:51;;;;;;;15.60;5.70;;;;;;;21.53;100.00;100070.19;5075279;28;21390;-69
2022/06/23 07:09:25;;;;;;;18.27;6.75;;;;;;;21.61;100.00;100063.06;5066378;28;20043;-69
2022/06/23 07:11:59;;;;;;;10.25;5.80;;;;;;;21.72;100.00;100064.66;5077736;28;20069;-69
2022/06/23 07:14:25;;;;;;;;;;;;;;;21.84;100.00;100066.91;5073492;28;20047;-69
2022/06/23 07:17:03;;;;;;;8.50;5.38;;;;;;;21.78;100.00;100051.50;5079085;28;20270;-69
2022/06/23 07:20:12;;;;;;;10.82;5.57;;;;;;;22.03;100.00;100068.59;5072311;28;20055;-69
2022/06/23 07:22:45;;;;;;;8.65;5.90;;;;;;;22.13;100.00;100074.66;5051410;28;20728;-69
2022/06/23 07:25:33;;;;;;;8.40;5.63;;;;;;;22.19;100.00;100063.31;5077571;28;20052;-69
2022/06/23 07:28:21;;;;;;;10.77;5.10;;;;;;;22.35;100.00;100068.75;5081112;28;20081;-69
2022/06/23 07:30:51;;;;;;;6.30;4.43;;;;;;;22.37;100.00;100056.03;5060170;28;20031;-70
2022/06/23 07:33:27;;;;;;;12.65;5.85;;;;;;;22.52;100.00;100066.13;5046995;28;20244;-69
2022/06/23 07:36:31;;;;;;;11.52;6.05;;;;;;;22.62;100.00;100075.72;5053991;28;20093;-70
2022/06/23 07:39:10;;;;;;;9.77;5.80;;;;;;;22.68;100.00;100080.44;5024445;28;20456;-69
2022/06/23 07:41:40;;;;;;;11.95;6.28;;;;;;;22.73;100.00;100071.94;5074799;28;20111;-69
2022/06/23 07:44:11;;;;;;;9.88;5.47;;;;;;;22.80;100.00;100076.50;5051801;28;20473;-70
2022/06/23 07:46:37;;;;;;;11.07;5.53;;;;;;;22.84;100.00;100060.94;5045878;28;20779;-70
2022/06/23 07:49:04;;;;;;;11.68;5.03;;;;;;;23.02;100.00;100074.19;5070887;28;20040;-70
2022/06/23 07:51:29;;;;;;;9.35;5.35;;;;;;;23.03;100.00;100060.63;5060200;28;20090;-70
2022/06/23 07:53:56;;;;;;;14.07;7.03;;;;;;;23.10;100.00;100061.66;5074305;28;20475;-69
2022/06/23 07:56:24;;;;;;;13.82;6.03;;;;;;;23.11;100.00;100054.44;5083772;28;20498;-70
2022/06/23 07:58:52;;;;;;;9.93;5.57;;;;;;;23.23;100.00;100053.94;5065294;28;20021;-69
2022/06/23 08:01:23;;;;;;;17.40;6.43;;;;;;;23.32;100.00;100071.72;5055649;28;20021;-70
2022/06/23 08:04:03;;;;;;;10.13;6.30;;;;;;;23.42;100.00;100075.09;5047458;28;20051;-69
2022/06/23 08:06:30;;;;;;;10.45;5.22;;;;;;;23.53;100.00;100073.94;5091772;28;20028;-69
2022/06/23 08:08:58;;;;;;;9.73;5.93;;;;;;;23.65;100.00;100080.66;5061903;28;20111;-70
2022/06/23 08:14:12;;;;;;;11.25;5.35;;;;;;;23.76;100.00;100076.78;5079121;28;20109;-70
2022/06/23 08:16:50;;;;;;;15.07;5.45;;;;;;;23.78;100.00;100069.41;5051257;28;20531;-70
2022/06/23 08:19:48;;;;;;;10.05;5.05;;;;;;;23.85;100.00;100081.13;5080033;28;20031;-70
2022/06/23 08:22:23;;;;;;;18.77;6.03;;;;;;;23.85;100.00;100068.56;5060962;28;20493;-69
2022/06/23 08:24:51;;;;;;;14.93;6.30;;;;;;;23.94;100.00;100066.69;5074297;28;20031;-69
2022/06/23 08:27:19;;;;;;;12.32;5.30;;;;;;;23.98;100.00;100069.88;5049688;28;20047;-69
2022/06/23 08:29:48;;;;;;;14.43;6.15;;;;;;;24.16;100.00;100079.44;5043972;28;20108;-69
2022/06/23 08:32:14;;;;;;;9.95;5.70;;;;;;;24.23;100.00;100080.41;5069603;28;20065;-69
2022/06/23 08:34:45;;;;;;;10.30;4.43;;;;;;;24.25;100.00;100064.13;5082965;28;20070;-69
2022/06/23 08:37:18;;;;;;;18.90;5.97;;;;;;;24.39;100.00;100080.38;5055674;28;20032;-68
2022/06/23 08:40:01;;;;;;;13.53;5.43;;;;;;;24.35;100.00;100062.91;5080443;28;20545;-69
2022/06/23 08:42:32;;;;;;;9.10;5.50;;;;;;;24.54;100.00;100079.63;5060070;28;20281;-69
2022/06/23 08:45:06;;;;;;;11.30;5.40;;;;;;;24.66;100.00;100075.56;5062912;28;20464;-70
2022/06/23 08:47:49;;;;;;;13.43;5.32;;;;;;;24.71;100.00;100068.63;5083838;28;20375;-70
2022/06/23 08:50:21;;;;;;;10.32;5.63;;;;;;;24.81;100.00;100071.09;5086596;28;20035;-69
2022/06/23 08:52:57;;;;;;;14.35;6.47;;;;;;;24.93;100.00;100083.19;5052723;28;20024;-70
2022/06/23 08:55:34;;;;;;;15.55;6.53;;;;;;;24.98;100.00;100075.41;5064809;28;20020;-70
2022/06/23 08:58:20;;;;;;;12.68;6.03;;;;;;;25.10;100.00;100076.69;5043101;28;20374;-70
2022/06/23 09:00:51;;;;;;;13.05;5.68;;;;;;;25.21;100.00;100065.50;5077143;28;20056;-69
2022/06/23 09:03:29;;;;;;;14.15;6.20;;;;;;;25.29;100.00;100062.75;5072291;28;20024;-69
2022/06/23 09:06:16;;;;;;;14.30;6.05;;;;;;;25.48;100.00;100071.38;5061563;28;20043;-69
2022/06/23 09:09:03;;;;;;;12.35;4.63;;;;;;;25.50;100.00;100077.41;5067503;28;20064;-69
2022/06/23 09:11:59;;;;;;;19.42;6.38;;;;;;;25.45;100.00;100082.50;5077380;28;20029;-70
2022/06/23 09:14:49;;;;;;;13.35;6.15;;;;;;;25.21;100.00;100068.19;5090571;28;20069;-69
2022/06/23 09:17:42;;;;;;;12.63;6.03;;;;;;;25.18;100.00;100063.16;5074749;28;20085;-69
2022/06/23 09:20:10;;;;;;;19.42;5.97;;;;;;;25.13;100.00;100067.41;5077386;28;20039;-69
2022/06/23 09:23:12;;;;;;;15.02;5.90;;;;;;;25.05;100.00;100060.22;5085242;28;20032;-69
2022/06/23 09:25:45;;;;;;;17.83;6.28;;;;;;;25.34;100.00;100071.16;5081442;28;20145;-69
2022/06/23 09:28:17;;;;;;;19.65;6.07;;;;;;;25.47;100.00;100065.16;5075355;28;20053;-69
2022/06/23 09:31:01;;;;;;;14.68;6.70;;;;;;;25.60;100.00;100067.25;5083951;28;20036;-69
2022/06/23 09:33:29;;;;;;;11.45;5.30;;;;;;;25.65;100.00;100068.38;5064870;28;20550;-69
2022/06/23 09:36:19;;;;;;;11.30;6.00;;;;;;;25.82;100.00;100067.22;5084314;28;20024;-70
2022/06/23 09:39:02;;;;;;;11.90;5.57;;;;;;;25.93;100.00;100065.94;5077782;28;20034;-70
2022/06/23 09:42:04;;;;;;;15.50;5.68;;;;;;;26.03;100.00;100061.09;5081082;28;20020;-70
2022/06/23 09:44:36;;;;;;;10.98;6.03;;;;;;;26.11;100.00;100063.72;5062675;28;20115;-70
2022/06/23 09:47:34;;;;;;;13.05;5.82;;;;;;;26.13;100.00;100053.59;5088183;28;20024;-70
2022/06/23 09:50:05;;;;;;;14.35;5.78;;;;;;;26.22;100.00;100049.00;5079659;28;20028;-70
2022/06/23 09:52:54;;;;;;;11.45;5.22;;;;;;;26.36;100.00;100050.84;5081423;28;20090;-70
2022/06/23 09:55:37;;;;;;;12.85;5.95;;;;;;;26.58;100.00;100051.75;5078115;28;20042;-69
2022/06/23 09:58:17;;;;;;;14.77;5.82;;;;;;;26.71;100.00;100049.19;5067757;28;20118;-70
2022/06/23 10:01:13;;;;;;;8.65;4.55;;;;;;;26.76;100.00;100041.41;5090955;28;20060;-70
2022/06/23 10:04:12;;;;;;;17.65;6.30;;;;;;;26.87;100.00;100046.31;5060243;28;20067;-70
2022/06/23 10:06:56;;;;;;;22.50;6.60;;;;;;;26.84;100.00;100041.28;5077445;28;20032;-69
2022/06/23 10:09:57;;;;;;;13.48;6.63;;;;;;;26.73;100.00;100036.38;5072119;28;20432;-70
2022/06/23 10:13:04;;;;;;;11.38;6.30;;;;;;;26.76;100.00;100036.00;5050654;28;20024;-70
2022/06/23 10:15:33;;;;;;;14.07;6.78;;;;;;;26.74;100.00;100036.19;5049392;28;20040;-69
2022/06/23 10:18:04;;;;;;;16.52;7.35;;;;;;;26.76;100.00;100034.16;5067323;28;20478;-69
2022/06/23 10:20:52;;;;;;;14.05;6.38;;;;;;;26.90;100.00;100032.47;5074738;28;20075;-69
2022/06/23 10:24:03;;;;;;;19.75;6.80;;;;;;;27.05;100.00;100035.94;5068236;28;20020;-70
2022/06/23 10:27:06;;;;;;;15.48;7.00;;;;;;;27.22;100.00;100026.56;4999958;28;20112;-70
2022/06/23 10:30:09;;;;;;;13.00;5.90;;;;;;;27.38;100.00;100020.03;5028351;28;20127;-70
2022/06/23 10:33:01;;;;;;;8.40;4.28;;;;;;;27.49;100.00;100018.72;5068416;28;20039;-70
2022/06/23 10:35:49;;;;;;;5.70;3.90;;;;;;;27.65;100.00;100010.31;5065253;28;20112;-70
2022/06/23 10:38:42;;;;;;;14.30;4.57;;;;;;;27.78;100.00;100015.84;5080983;28;20391;-70
2022/06/23 10:41:07;;;;;;;9.75;4.05;;;;;;;27.82;100.00;100019.81;5091161;28;20518;-71
2022/06/23 10:43:55;;;;;;;6.90;4.03;;;;;;;27.80;100.00;100009.22;5078052;28;20115;-69
2022/06/23 10:46:24;;;;;;;10.10;4.15;;;;;;;27.86;100.00;100012.97;5067424;28;20035;-70
2022/06/23 10:49:14;;;;;;;10.93;4.50;;;;;;;27.91;100.00;100015.94;5057165;28;20040;-69
2022/06/23 10:52:04;;;;;;;7.68;3.58;;;;;;;27.90;100.00;100006.16;5072845;28;20462;-70
2022/06/23 10:54:52;;;;;;;14.30;4.05;;;;;;;27.98;100.00;100015.97;5064505;28;20059;-70
2022/06/23 10:57:33;;;;;;;10.50;3.78;;;;;;;27.99;100.00;100018.47;5048030;28;20033;-71
2022/06/23 11:00:07;;;;;;;7.63;3.85;;;;;;;28.14;100.00;100016.53;5094640;28;20024;-70
2022/06/23 11:02:48;;;;;;;10.73;5.18;;;;;;;28.34;100.00;100013.91;5069993;28;20036;-70
2022/06/23 11:05:34;;;;;;;13.88;4.70;;;;;;;28.17;100.00;99978.28;5077509;28;20031;-69
2022/06/23 11:08:26;;;;;;;11.90;4.50;;;;;;;28.58;100.00;100005.28;5078040;28;20090;-70
2022/06/23 11:11:18;;;;;;;9.45;4.10;;;;;;;28.79;100.00;100004.34;5082241;28;20032;-70
2022/06/23 11:14:05;;;;;;;12.18;4.65;;;;;;;29.13;100.00;100006.91;5052723;28;20111;-71
2022/06/23 11:16:51;;;;;;;10.80;4.60;;;;;;;29.37;100.00;100010.94;5078923;28;20474;-70
2022/06/23 11:19:33;;;;;;;10.15;4.82;;;;;;;29.46;100.00;100008.84;5093369;28;20052;-70
2022/06/23 11:22:09;;;;;;;9.60;4.75;;;;;;;29.69;96.64;100007.38;5065701;28;20020;-70
2022/06/23 11:25:02;;;;;;;10.63;4.47;;;;;;;29.69;96.93;99995.69;5068239;28;20032;-70
2022/06/23 11:27:37;;;;;;;9.80;3.60;;;;;;;29.82;97.17;100009.22;5093297;28;20043;-70
2022/06/23 11:30:27;;;;;;;9.15;4.10;;;;;;;29.81;91.43;99988.59;5090782;28;20034;-70
2022/06/23 11:33:05;;;;;;;10.05;4.07;;;;;;;30.09;96.40;100001.88;5085864;28;20058;-70
2022/06/23 11:35:43;;;;;;;9.25;4.13;;;;;;;30.33;94.36;99993.06;5074339;28;20055;-70
2022/06/23 11:38:31;;;;;;;10.82;4.22;;;;;;;30.53;94.69;100006.56;5080179;28;20032;-70
2022/06/23 11:41:06;;;;;;;12.02;4.50;;;;;;;30.71;98.32;99982.28;5071910;28;20031;-70
2022/06/23 11:43:41;;;;;;;16.58;4.80;;;;;;;31.69;90.82;99991.63;5069190;28;20036;-70
2022/06/23 11:46:15;;;;;;;231.68;22.25;;;;;;;32.88;93.36;99994.63;5081697;28;20028;-71
2022/06/23 11:48:43;;;;;;;9.20;4.45;;;;;;;33.89;79.76;99997.19;5075002;28;20065;-71
2022/06/23 11:51:21;;;;;;;12.18;4.55;;;;;;;34.69;76.49;99995.41;5066604;28;20021;-71
2022/06/23 11:54:01;;;;;;;23.55;6.22;;;;;;;35.55;81.98;99974.25;5063808;28;20028;-71
2022/06/23 11:56:33;;;;;;;10.25;4.40;;;;;;;35.83;70.94;99976.88;5049683;28;20430;-71
2022/06/23 11:59:11;;;;;;;17.63;5.13;;;;;;;35.62;73.12;99974.94;5078031;28;20103;-71
2022/06/23 12:01:36;;;;;;;12.27;4.50;;;;;;;35.34;66.50;99963.00;5065098;28;20044;-71
2022/06/23 12:04:21;;;;;;;10.68;4.00;;;;;;;35.38;70.17;99969.63;5067986;28;20028;-71
2022/06/23 12:06:49;;;;;;;15.93;4.63;;;;;;;35.77;63.33;99969.66;5064410;28;20483;-70
2022/06/23 12:09:23;;;;;;;8.07;3.75;;;;;;;34.95;64.07;99972.09;5053356;28;20402;-70
2022/06/23 12:11:49;;;;;;;6.97;4.15;;;;;;;34.12;65.02;99953.53;5064273;28;20078;-71
2022/06/23 12:14:16;;;;;;;7.22;3.97;;;;;;;33.44;74.50;99960.66;5082300;28;20028;-71